sensor_id;sensor_type;location;lat;lon;timestamp;P1;durP1;ratioP1;P2;durP2;ratioP2
10481;SDS011;5288;42.334;23.876;2024-03-23T00:51:59;5.60;;;4.17;;
10481;SDS011;5288;42.334;23.876;2024-03-23T00:54:25;6.37;;;4.10;;
10481;SDS011;5288;42.334;23.876;2024-03-23T00:56:52;5.77;;;4.33;;
10481;SDS011;5288;42.334;23.876;2024-03-23T00:59:18;7.27;;;4.23;;
10481;SDS011;5288;42.334;23.876;2024-03-23T01:01:47;5.87;;;4.47;;
10481;SDS011;5288;42.334;23.876;2024-03-23T01:04:13;6.67;;;4.37;;
10481;SDS011;5288;42.334;23.876;2024-03-23T01:06:40;8.10;;;5.47;;
10481;SDS011;5288;42.334;23.876;2024-03-23T01:09:07;4.90;;;3.93;;
10481;SDS011;5288;42.334;23.876;2024-03-23T01:11:36;7.97;;;5.30;;
10481;SDS011;5288;42.334;23.876;2024-03-23T01:14:01;7.00;;;5.07;;
10481;SDS011;5288;42.334;23.876;2024-03-23T01:16:28;5.77;;;4.13;;
10481;SDS011;5288;42.334;23.876;2024-03-23T01:18:54;5.63;;;3.90;;
10481;SDS011;5288;42.334;23.876;2024-03-23T01:21:21;5.53;;;4.30;;
10481;SDS011;5288;42.334;23.876;2024-03-23T01:23:48;6.77;;;5.23;;
10481;SDS011;5288;42.334;23.876;2024-03-23T01:26:17;6.63;;;5.50;;
10481;SDS011;5288;42.334;23.876;2024-03-23T01:28:43;7.43;;;6.63;;
10481;SDS011;5288;42.334;23.876;2024-03-23T01:31:10;6.47;;;4.67;;
10481;SDS011;5288;42.334;23.876;2024-03-23T01:33:36;6.17;;;4.13;;
10481;SDS011;5288;42.334;23.876;2024-03-23T01:36:03;5.90;;;4.53;;
10481;SDS011;5288;42.334;23.876;2024-03-23T01:38:30;5.10;;;4.07;;
10481;SDS011;5288;42.334;23.876;2024-03-23T01:40:57;4.50;;;3.70;;
10481;SDS011;5288;42.334;23.876;2024-03-23T01:43:24;5.37;;;3.90;;
10481;SDS011;5288;42.334;23.876;2024-03-23T01:45:51;5.50;;;4.47;;
10481;SDS011;5288;42.334;23.876;2024-03-23T01:48:19;10.27;;;4.70;;
10481;SDS011;5288;42.334;23.876;2024-03-23T01:50:46;6.40;;;4.60;;
10481;SDS011;5288;42.334;23.876;2024-03-23T01:53:13;4.53;;;3.77;;
10481;SDS011;5288;42.334;23.876;2024-03-23T01:55:42;5.33;;;3.70;;
10481;SDS011;5288;42.334;23.876;2024-03-23T01:58:08;7.60;;;5.20;;
10481;SDS011;5288;42.334;23.876;2024-03-23T02:00:37;5.90;;;4.50;;
10481;SDS011;5288;42.334;23.876;2024-03-23T02:03:06;7.80;;;5.20;;
10481;SDS011;5288;42.334;23.876;2024-03-23T02:05:49;7.43;;;4.80;;
10481;SDS011;5288;42.334;23.876;2024-03-23T02:08:16;5.87;;;4.53;;
10481;SDS011;5288;42.334;23.876;2024-03-23T02:10:44;8.63;;;4.07;;
10481;SDS011;5288;42.334;23.876;2024-03-23T02:13:10;6.40;;;4.40;;
10481;SDS011;5288;42.334;23.876;2024-03-23T02:15:38;7.13;;;4.63;;
10481;SDS011;5288;42.334;23.876;2024-03-23T02:18:06;8.07;;;4.57;;
10481;SDS011;5288;42.334;23.876;2024-03-23T02:20:33;8.07;;;5.43;;
10481;SDS011;5288;42.334;23.876;2024-03-23T02:23:01;6.53;;;4.90;;
10481;SDS011;5288;42.334;23.876;2024-03-23T02:25:28;10.43;;;5.53;;
10481;SDS011;5288;42.334;23.876;2024-03-23T02:27:54;9.97;;;4.10;;
10481;SDS011;5288;42.334;23.876;2024-03-23T02:30:21;7.47;;;5.73;;
10481;SDS011;5288;42.334;23.876;2024-03-23T02:32:47;6.83;;;5.97;;
10481;SDS011;5288;42.334;23.876;2024-03-23T02:35:14;9.10;;;6.53;;
10481;SDS011;5288;42.334;23.876;2024-03-23T02:37:40;10.20;;;6.50;;
10481;SDS011;5288;42.334;23.876;2024-03-23T02:40:08;7.20;;;5.80;;
10481;SDS011;5288;42.334;23.876;2024-03-23T02:42:34;8.17;;;6.43;;
10481;SDS011;5288;42.334;23.876;2024-03-23T02:45:01;7.57;;;6.07;;
10481;SDS011;5288;42.334;23.876;2024-03-23T02:47:30;10.17;;;6.27;;
10481;SDS011;5288;42.334;23.876;2024-03-23T02:49:57;8.13;;;6.70;;
10481;SDS011;5288;42.334;23.876;2024-03-23T02:52:23;9.57;;;5.40;;
10481;SDS011;5288;42.334;23.876;2024-03-23T02:54:50;8.20;;;5.77;;
10481;SDS011;5288;42.334;23.876;2024-03-23T02:57:17;8.53;;;7.07;;
10481;SDS011;5288;42.334;23.876;2024-03-23T02:59:44;9.67;;;7.03;;
10481;SDS011;5288;42.334;23.876;2024-03-23T03:02:11;9.03;;;7.13;;
10481;SDS011;5288;42.334;23.876;2024-03-23T03:04:39;8.47;;;6.73;;
10481;SDS011;5288;42.334;23.876;2024-03-23T03:07:05;11.00;;;6.60;;
10481;SDS011;5288;42.334;23.876;2024-03-23T03:09:32;8.43;;;5.80;;
10481;SDS011;5288;42.334;23.876;2024-03-23T03:12:00;8.40;;;6.03;;
10481;SDS011;5288;42.334;23.876;2024-03-23T03:14:29;9.43;;;6.10;;
10481;SDS011;5288;42.334;23.876;2024-03-23T03:16:56;8.37;;;6.03;;
10481;SDS011;5288;42.334;23.876;2024-03-23T03:19:23;8.03;;;6.17;;
10481;SDS011;5288;42.334;23.876;2024-03-23T03:21:49;7.30;;;5.63;;
10481;SDS011;5288;42.334;23.876;2024-03-23T03:24:16;6.60;;;5.53;;
10481;SDS011;5288;42.334;23.876;2024-03-23T03:26:42;7.60;;;5.87;;
10481;SDS011;5288;42.334;23.876;2024-03-23T03:29:09;6.37;;;5.40;;
10481;SDS011;5288;42.334;23.876;2024-03-23T03:31:37;5.80;;;4.87;;
10481;SDS011;5288;42.334;23.876;2024-03-23T03:34:03;7.10;;;4.40;;
10481;SDS011;5288;42.334;23.876;2024-03-23T03:36:29;6.30;;;4.57;;
10481;SDS011;5288;42.334;23.876;2024-03-23T03:38:56;8.10;;;5.13;;
10481;SDS011;5288;42.334;23.876;2024-03-23T03:41:22;7.57;;;5.27;;
10481;SDS011;5288;42.334;23.876;2024-03-23T03:43:49;10.90;;;5.57;;
10481;SDS011;5288;42.334;23.876;2024-03-23T03:46:15;5.70;;;4.53;;
10481;SDS011;5288;42.334;23.876;2024-03-23T03:48:44;6.53;;;4.63;;
10481;SDS011;5288;42.334;23.876;2024-03-23T03:51:10;9.27;;;6.30;;
10481;SDS011;5288;42.334;23.876;2024-03-23T03:53:37;7.83;;;6.47;;
10481;SDS011;5288;42.334;23.876;2024-03-23T03:56:03;10.70;;;6.67;;
10481;SDS011;5288;42.334;23.876;2024-03-23T03:58:30;11.13;;;7.87;;
10481;SDS011;5288;42.334;23.876;2024-03-23T04:00:56;11.43;;;7.10;;
10481;SDS011;5288;42.334;23.876;2024-03-23T04:03:23;11.63;;;7.17;;
10481;SDS011;5288;42.334;23.876;2024-03-23T04:05:52;18.60;;;7.70;;
10481;SDS011;5288;42.334;23.876;2024-03-23T04:08:19;10.10;;;6.27;;
10481;SDS011;5288;42.334;23.876;2024-03-23T04:10:47;9.50;;;6.63;;
10481;SDS011;5288;42.334;23.876;2024-03-23T04:13:13;11.27;;;6.30;;
10481;SDS011;5288;42.334;23.876;2024-03-23T04:15:41;9.27;;;5.93;;
10481;SDS011;5288;42.334;23.876;2024-03-23T04:18:07;11.13;;;6.70;;
10481;SDS011;5288;42.334;23.876;2024-03-23T04:20:34;11.13;;;6.53;;
10481;SDS011;5288;42.334;23.876;2024-03-23T04:23:02;10.80;;;7.20;;
10481;SDS011;5288;42.334;23.876;2024-03-23T04:25:29;9.27;;;7.20;;
10481;SDS011;5288;42.334;23.876;2024-03-23T04:27:56;7.80;;;6.10;;
10481;SDS011;5288;42.334;23.876;2024-03-23T04:30:23;9.33;;;7.23;;
10481;SDS011;5288;42.334;23.876;2024-03-23T04:32:50;17.93;;;10.00;;
10481;SDS011;5288;42.334;23.876;2024-03-23T04:35:17;9.30;;;6.87;;
10481;SDS011;5288;42.334;23.876;2024-03-23T04:37:45;8.50;;;6.57;;
10481;SDS011;5288;42.334;23.876;2024-03-23T04:40:13;15.07;;;8.40;;
10481;SDS011;5288;42.334;23.876;2024-03-23T04:42:40;12.37;;;7.33;;
10481;SDS011;5288;42.334;23.876;2024-03-23T04:45:08;14.70;;;8.30;;
10481;SDS011;5288;42.334;23.876;2024-03-23T04:47:35;11.27;;;7.70;;
10481;SDS011;5288;42.334;23.876;2024-03-23T04:50:05;18.87;;;8.43;;
10481;SDS011;5288;42.334;23.876;2024-03-23T04:52:32;11.23;;;8.43;;
10481;SDS011;5288;42.334;23.876;2024-03-23T04:54:59;15.03;;;7.67;;
10481;SDS011;5288;42.334;23.876;2024-03-23T04:57:27;21.47;;;9.13;;
10481;SDS011;5288;42.334;23.876;2024-03-23T04:59:54;14.80;;;8.73;;
10481;SDS011;5288;42.334;23.876;2024-03-23T05:02:21;15.00;;;7.93;;
10481;SDS011;5288;42.334;23.876;2024-03-23T05:04:47;15.63;;;8.63;;
10481;SDS011;5288;42.334;23.876;2024-03-23T05:07:14;18.17;;;8.80;;
10481;SDS011;5288;42.334;23.876;2024-03-23T05:09:40;23.67;;;9.10;;
10481;SDS011;5288;42.334;23.876;2024-03-23T05:12:07;13.90;;;8.90;;
10481;SDS011;5288;42.334;23.876;2024-03-23T05:14:35;17.13;;;9.57;;
10481;SDS011;5288;42.334;23.876;2024-03-23T05:17:02;13.70;;;7.93;;
10481;SDS011;5288;42.334;23.876;2024-03-23T05:19:29;9.93;;;7.37;;
10481;SDS011;5288;42.334;23.876;2024-03-23T05:21:56;12.13;;;7.00;;
10481;SDS011;5288;42.334;23.876;2024-03-23T05:24:22;9.23;;;6.80;;
10481;SDS011;5288;42.334;23.876;2024-03-23T05:26:49;9.93;;;7.67;;
10481;SDS011;5288;42.334;23.876;2024-03-23T05:29:15;9.67;;;6.47;;
10481;SDS011;5288;42.334;23.876;2024-03-23T05:31:44;11.00;;;7.27;;
10481;SDS011;5288;42.334;23.876;2024-03-23T05:34:14;13.43;;;7.67;;
10481;SDS011;5288;42.334;23.876;2024-03-23T05:36:41;11.10;;;7.87;;
10481;SDS011;5288;42.334;23.876;2024-03-23T05:39:07;13.03;;;6.87;;
10481;SDS011;5288;42.334;23.876;2024-03-23T05:41:34;8.77;;;7.27;;
10481;SDS011;5288;42.334;23.876;2024-03-23T05:44:01;13.23;;;9.07;;
10481;SDS011;5288;42.334;23.876;2024-03-23T05:46:29;12.87;;;8.73;;
10481;SDS011;5288;42.334;23.876;2024-03-23T05:48:56;18.40;;;10.03;;
10481;SDS011;5288;42.334;23.876;2024-03-23T05:51:29;18.20;;;11.77;;
10481;SDS011;5288;42.334;23.876;2024-03-23T05:53:55;17.20;;;10.50;;
10481;SDS011;5288;42.334;23.876;2024-03-23T05:56:22;15.40;;;11.30;;
10481;SDS011;5288;42.334;23.876;2024-03-23T05:58:47;16.97;;;11.67;;
10481;SDS011;5288;42.334;23.876;2024-03-23T06:01:14;14.10;;;9.53;;
10481;SDS011;5288;42.334;23.876;2024-03-23T06:03:40;41.43;;;16.93;;
10481;SDS011;5288;42.334;23.876;2024-03-23T06:06:10;36.10;;;16.67;;
10481;SDS011;5288;42.334;23.876;2024-03-23T06:08:38;34.37;;;18.73;;
10481;SDS011;5288;42.334;23.876;2024-03-23T06:11:05;21.87;;;13.40;;
10481;SDS011;5288;42.334;23.876;2024-03-23T06:13:31;24.13;;;14.23;;
10481;SDS011;5288;42.334;23.876;2024-03-23T06:15:59;26.47;;;13.83;;
10481;SDS011;5288;42.334;23.876;2024-03-23T06:18:25;13.77;;;11.07;;
10481;SDS011;5288;42.334;23.876;2024-03-23T06:20:52;14.23;;;9.13;;
10481;SDS011;5288;42.334;23.876;2024-03-23T06:23:20;11.70;;;8.13;;
10481;SDS011;5288;42.334;23.876;2024-03-23T06:25:47;14.90;;;10.23;;
10481;SDS011;5288;42.334;23.876;2024-03-23T06:28:13;16.60;;;9.93;;
10481;SDS011;5288;42.334;23.876;2024-03-23T06:30:40;41.13;;;24.13;;
10481;SDS011;5288;42.334;23.876;2024-03-23T06:33:06;44.20;;;21.33;;
10481;SDS011;5288;42.334;23.876;2024-03-23T06:35:34;11.03;;;8.27;;
10481;SDS011;5288;42.334;23.876;2024-03-23T06:37:59;13.67;;;8.93;;
10481;SDS011;5288;42.334;23.876;2024-03-23T06:40:28;16.63;;;10.23;;
10481;SDS011;5288;42.334;23.876;2024-03-23T06:42:54;11.77;;;9.07;;
10481;SDS011;5288;42.334;23.876;2024-03-23T06:45:21;28.30;;;10.27;;
10481;SDS011;5288;42.334;23.876;2024-03-23T06:47:48;17.67;;;8.90;;
10481;SDS011;5288;42.334;23.876;2024-03-23T06:50:16;15.17;;;9.87;;
10481;SDS011;5288;42.334;23.876;2024-03-23T06:52:42;9.77;;;7.83;;
10481;SDS011;5288;42.334;23.876;2024-03-23T06:55:09;8.80;;;7.10;;
10481;SDS011;5288;42.334;23.876;2024-03-23T06:57:37;10.67;;;7.57;;
10481;SDS011;5288;42.334;23.876;2024-03-23T07:00:04;15.07;;;8.07;;
10481;SDS011;5288;42.334;23.876;2024-03-23T07:02:35;10.57;;;7.40;;
10481;SDS011;5288;42.334;23.876;2024-03-23T07:05:02;10.73;;;7.57;;
10481;SDS011;5288;42.334;23.876;2024-03-23T07:07:28;10.03;;;7.40;;
10481;SDS011;5288;42.334;23.876;2024-03-23T07:09:55;9.30;;;7.40;;
10481;SDS011;5288;42.334;23.876;2024-03-23T07:12:21;9.77;;;6.90;;
10481;SDS011;5288;42.334;23.876;2024-03-23T07:14:50;18.40;;;7.60;;
10481;SDS011;5288;42.334;23.876;2024-03-23T07:17:16;14.67;;;7.33;;
10481;SDS011;5288;42.334;23.876;2024-03-23T07:19:43;13.87;;;6.73;;
10481;SDS011;5288;42.334;23.876;2024-03-23T07:22:09;18.73;;;8.13;;
10481;SDS011;5288;42.334;23.876;2024-03-23T07:24:36;14.13;;;8.20;;
10481;SDS011;5288;42.334;23.876;2024-03-23T07:27:04;7.90;;;6.43;;
10481;SDS011;5288;42.334;23.876;2024-03-23T07:29:31;9.87;;;6.67;;
10481;SDS011;5288;42.334;23.876;2024-03-23T07:31:59;12.87;;;6.60;;
10481;SDS011;5288;42.334;23.876;2024-03-23T07:34:25;16.83;;;9.10;;
10481;SDS011;5288;42.334;23.876;2024-03-23T07:36:52;9.13;;;6.40;;
10481;SDS011;5288;42.334;23.876;2024-03-23T07:39:18;10.17;;;5.80;;
10481;SDS011;5288;42.334;23.876;2024-03-23T07:41:45;6.00;;;4.57;;
10481;SDS011;5288;42.334;23.876;2024-03-23T07:44:11;7.87;;;4.33;;
10481;SDS011;5288;42.334;23.876;2024-03-23T07:46:38;20.53;;;6.33;;
10481;SDS011;5288;42.334;23.876;2024-03-23T07:49:05;5.50;;;4.30;;
10481;SDS011;5288;42.334;23.876;2024-03-23T07:51:33;10.67;;;4.90;;
10481;SDS011;5288;42.334;23.876;2024-03-23T07:54:00;5.13;;;4.10;;
10481;SDS011;5288;42.334;23.876;2024-03-23T07:56:27;7.03;;;3.80;;
10481;SDS011;5288;42.334;23.876;2024-03-23T07:58:53;6.57;;;4.60;;
10481;SDS011;5288;42.334;23.876;2024-03-23T08:01:20;10.23;;;6.03;;
10481;SDS011;5288;42.334;23.876;2024-03-23T08:03:46;6.87;;;4.37;;
10481;SDS011;5288;42.334;23.876;2024-03-23T08:06:16;9.40;;;4.43;;
10481;SDS011;5288;42.334;23.876;2024-03-23T08:08:43;6.53;;;4.43;;
10481;SDS011;5288;42.334;23.876;2024-03-23T08:11:11;10.13;;;4.97;;
10481;SDS011;5288;42.334;23.876;2024-03-23T08:13:38;6.10;;;4.53;;
10481;SDS011;5288;42.334;23.876;2024-03-23T08:16:06;12.30;;;6.87;;
10481;SDS011;5288;42.334;23.876;2024-03-23T08:18:33;9.23;;;4.60;;
10481;SDS011;5288;42.334;23.876;2024-03-23T08:21:00;8.30;;;5.23;;
10481;SDS011;5288;42.334;23.876;2024-03-23T08:23:29;13.60;;;7.97;;
10481;SDS011;5288;42.334;23.876;2024-03-23T08:25:59;8.87;;;4.80;;
10481;SDS011;5288;42.334;23.876;2024-03-23T08:28:25;6.17;;;4.50;;
10481;SDS011;5288;42.334;23.876;2024-03-23T08:30:53;5.60;;;4.60;;
10481;SDS011;5288;42.334;23.876;2024-03-23T08:33:20;8.00;;;4.33;;
10481;SDS011;5288;42.334;23.876;2024-03-23T08:35:53;6.80;;;4.00;;
10481;SDS011;5288;42.334;23.876;2024-03-23T08:38:20;6.80;;;4.60;;
10481;SDS011;5288;42.334;23.876;2024-03-23T08:40:55;18.20;;;5.87;;
10481;SDS011;5288;42.334;23.876;2024-03-23T08:43:22;7.53;;;5.40;;
10481;SDS011;5288;42.334;23.876;2024-03-23T08:45:49;9.53;;;5.40;;
10481;SDS011;5288;42.334;23.876;2024-03-23T08:48:15;7.30;;;4.10;;
10481;SDS011;5288;42.334;23.876;2024-03-23T08:50:43;5.40;;;4.90;;
10481;SDS011;5288;42.334;23.876;2024-03-23T08:53:09;7.47;;;5.90;;
10481;SDS011;5288;42.334;23.876;2024-03-23T08:55:36;7.83;;;3.93;;
10481;SDS011;5288;42.334;23.876;2024-03-23T08:58:03;5.23;;;3.53;;
10481;SDS011;5288;42.334;23.876;2024-03-23T09:00:34;6.40;;;4.20;;
10481;SDS011;5288;42.334;23.876;2024-03-23T09:03:00;5.30;;;4.13;;
10481;SDS011;5288;42.334;23.876;2024-03-23T09:05:29;4.43;;;4.00;;
10481;SDS011;5288;42.334;23.876;2024-03-23T09:08:01;7.17;;;6.40;;
10481;SDS011;5288;42.334;23.876;2024-03-23T09:10:28;4.93;;;4.00;;
10481;SDS011;5288;42.334;23.876;2024-03-23T09:12:55;5.77;;;5.07;;
10481;SDS011;5288;42.334;23.876;2024-03-23T09:15:24;6.00;;;3.77;;
10481;SDS011;5288;42.334;23.876;2024-03-23T09:17:50;4.70;;;4.17;;
10481;SDS011;5288;42.334;23.876;2024-03-23T09:20:17;5.73;;;3.20;;
10481;SDS011;5288;42.334;23.876;2024-03-23T09:22:43;4.60;;;3.73;;
10481;SDS011;5288;42.334;23.876;2024-03-23T09:25:12;8.30;;;3.90;;
10481;SDS011;5288;42.334;23.876;2024-03-23T09:27:39;5.73;;;3.60;;
10481;SDS011;5288;42.334;23.876;2024-03-23T09:30:06;6.30;;;3.90;;
10481;SDS011;5288;42.334;23.876;2024-03-23T09:32:35;6.50;;;3.83;;
10481;SDS011;5288;42.334;23.876;2024-03-23T09:35:02;7.90;;;3.63;;
10481;SDS011;5288;42.334;23.876;2024-03-23T09:37:28;7.13;;;3.90;;
10481;SDS011;5288;42.334;23.876;2024-03-23T09:39:55;4.23;;;3.37;;
10481;SDS011;5288;42.334;23.876;2024-03-23T09:42:21;4.30;;;3.90;;
10481;SDS011;5288;42.334;23.876;2024-03-23T09:44:50;3.40;;;3.07;;
10481;SDS011;5288;42.334;23.876;2024-03-23T09:47:16;4.23;;;3.73;;
10481;SDS011;5288;42.334;23.876;2024-03-23T09:49:45;4.07;;;3.67;;
10481;SDS011;5288;42.334;23.876;2024-03-23T09:52:11;3.83;;;2.90;;
10481;SDS011;5288;42.334;23.876;2024-03-23T09:54:38;3.77;;;3.10;;
10481;SDS011;5288;42.334;23.876;2024-03-23T09:57:04;3.57;;;3.10;;
10481;SDS011;5288;42.334;23.876;2024-03-23T09:59:32;5.03;;;2.90;;
10481;SDS011;5288;42.334;23.876;2024-03-23T10:01:59;9.13;;;5.40;;
10481;SDS011;5288;42.334;23.876;2024-03-23T10:04:36;5.03;;;3.07;;
10481;SDS011;5288;42.334;23.876;2024-03-23T10:07:12;4.13;;;3.40;;
10481;SDS011;5288;42.334;23.876;2024-03-23T10:09:39;3.70;;;3.30;;
10481;SDS011;5288;42.334;23.876;2024-03-23T10:12:09;4.33;;;3.17;;
10481;SDS011;5288;42.334;23.876;2024-03-23T10:14:37;4.13;;;3.00;;
10481;SDS011;5288;42.334;23.876;2024-03-23T10:19:49;3.10;;;2.80;;
10481;SDS011;5288;42.334;23.876;2024-03-23T10:22:18;3.10;;;2.40;;
10481;SDS011;5288;42.334;23.876;2024-03-23T10:24:46;3.93;;;2.40;;
10481;SDS011;5288;42.334;23.876;2024-03-23T10:27:14;3.83;;;2.80;;
10481;SDS011;5288;42.334;23.876;2024-03-23T10:29:42;2.97;;;2.30;;
10481;SDS011;5288;42.334;23.876;2024-03-23T10:32:09;4.00;;;3.10;;
10481;SDS011;5288;42.334;23.876;2024-03-23T10:34:36;3.70;;;2.53;;
10481;SDS011;5288;42.334;23.876;2024-03-23T10:37:03;3.83;;;2.40;;
10481;SDS011;5288;42.334;23.876;2024-03-23T10:39:34;7.93;;;3.27;;
10481;SDS011;5288;42.334;23.876;2024-03-23T10:42:04;3.03;;;2.23;;
10481;SDS011;5288;42.334;23.876;2024-03-23T10:44:32;4.27;;;2.30;;
10481;SDS011;5288;42.334;23.876;2024-03-23T10:46:58;5.23;;;2.60;;
10481;SDS011;5288;42.334;23.876;2024-03-23T10:49:26;3.57;;;2.27;;
10481;SDS011;5288;42.334;23.876;2024-03-23T10:51:55;2.60;;;2.27;;
10481;SDS011;5288;42.334;23.876;2024-03-23T10:54:25;4.70;;;2.67;;
10481;SDS011;5288;42.334;23.876;2024-03-23T10:56:55;5.70;;;2.23;;
10481;SDS011;5288;42.334;23.876;2024-03-23T10:59:26;4.10;;;2.30;;
10481;SDS011;5288;42.334;23.876;2024-03-23T11:01:56;2.90;;;2.40;;
10481;SDS011;5288;42.334;23.876;2024-03-23T11:04:29;10.83;;;4.37;;
10481;SDS011;5288;42.334;23.876;2024-03-23T11:06:56;4.53;;;2.43;;
10481;SDS011;5288;42.334;23.876;2024-03-23T11:09:39;2.60;;;2.40;;
10481;SDS011;5288;42.334;23.876;2024-03-23T11:12:26;6.20;;;3.87;;
10481;SDS011;5288;42.334;23.876;2024-03-23T11:14:56;4.10;;;2.70;;
10481;SDS011;5288;42.334;23.876;2024-03-23T11:17:25;6.33;;;3.03;;
10481;SDS011;5288;42.334;23.876;2024-03-23T11:19:53;9.13;;;2.67;;
10481;SDS011;5288;42.334;23.876;2024-03-23T11:25:14;3.87;;;2.97;;
10481;SDS011;5288;42.334;23.876;2024-03-23T11:27:42;4.40;;;3.07;;
10481;SDS011;5288;42.334;23.876;2024-03-23T11:30:11;5.10;;;3.13;;
10481;SDS011;5288;42.334;23.876;2024-03-23T11:32:39;5.37;;;3.20;;
10481;SDS011;5288;42.334;23.876;2024-03-23T11:35:06;3.70;;;2.73;;
10481;SDS011;5288;42.334;23.876;2024-03-23T11:37:34;4.67;;;3.10;;
10481;SDS011;5288;42.334;23.876;2024-03-23T11:40:16;3.70;;;2.67;;
10481;SDS011;5288;42.334;23.876;2024-03-23T11:42:44;2.90;;;2.60;;
10481;SDS011;5288;42.334;23.876;2024-03-23T11:45:11;7.13;;;3.10;;
10481;SDS011;5288;42.334;23.876;2024-03-23T11:47:38;3.30;;;2.80;;
10481;SDS011;5288;42.334;23.876;2024-03-23T11:50:08;3.23;;;2.83;;
10481;SDS011;5288;42.334;23.876;2024-03-23T11:52:44;5.67;;;3.10;;
10481;SDS011;5288;42.334;23.876;2024-03-23T11:55:11;6.13;;;2.97;;
10481;SDS011;5288;42.334;23.876;2024-03-23T11:57:37;5.47;;;2.80;;
10481;SDS011;5288;42.334;23.876;2024-03-23T12:02:47;3.37;;;3.03;;
10481;SDS011;5288;42.334;23.876;2024-03-23T12:05:15;6.70;;;2.90;;
10481;SDS011;5288;42.334;23.876;2024-03-23T12:07:41;4.27;;;3.00;;
10481;SDS011;5288;42.334;23.876;2024-03-23T12:10:08;3.13;;;2.83;;
10481;SDS011;5288;42.334;23.876;2024-03-23T12:12:34;4.37;;;3.07;;
10481;SDS011;5288;42.334;23.876;2024-03-23T12:15:02;3.27;;;2.90;;
10481;SDS011;5288;42.334;23.876;2024-03-23T12:17:31;5.03;;;3.47;;
10481;SDS011;5288;42.334;23.876;2024-03-23T12:20:00;6.57;;;2.90;;
10481;SDS011;5288;42.334;23.876;2024-03-23T12:22:26;6.43;;;3.30;;
10481;SDS011;5288;42.334;23.876;2024-03-23T12:24:54;4.50;;;3.10;;
10481;SDS011;5288;42.334;23.876;2024-03-23T12:27:20;6.17;;;3.50;;
10481;SDS011;5288;42.334;23.876;2024-03-23T12:29:47;4.60;;;3.17;;
10481;SDS011;5288;42.334;23.876;2024-03-23T12:32:13;3.87;;;3.40;;
10481;SDS011;5288;42.334;23.876;2024-03-23T12:34:43;4.10;;;2.87;;
10481;SDS011;5288;42.334;23.876;2024-03-23T12:37:09;12.93;;;3.83;;
10481;SDS011;5288;42.334;23.876;2024-03-23T12:39:37;4.90;;;3.13;;
10481;SDS011;5288;42.334;23.876;2024-03-23T12:42:04;4.50;;;2.93;;
10481;SDS011;5288;42.334;23.876;2024-03-23T12:44:31;5.20;;;3.37;;
10481;SDS011;5288;42.334;23.876;2024-03-23T12:46:57;4.07;;;2.73;;
10481;SDS011;5288;42.334;23.876;2024-03-23T12:49:24;5.03;;;3.27;;
10481;SDS011;5288;42.334;23.876;2024-03-23T12:51:54;3.37;;;2.90;;
10481;SDS011;5288;42.334;23.876;2024-03-23T12:54:22;4.80;;;3.03;;
10481;SDS011;5288;42.334;23.876;2024-03-23T12:56:49;4.63;;;3.40;;
10481;SDS011;5288;42.334;23.876;2024-03-23T12:59:16;8.17;;;3.30;;
10481;SDS011;5288;42.334;23.876;2024-03-23T13:01:43;8.50;;;3.13;;
10481;SDS011;5288;42.334;23.876;2024-03-23T13:04:10;5.13;;;3.33;;
10481;SDS011;5288;42.334;23.876;2024-03-23T13:06:36;4.13;;;3.17;;
10481;SDS011;5288;42.334;23.876;2024-03-23T13:09:05;3.73;;;3.23;;
10481;SDS011;5288;42.334;23.876;2024-03-23T13:11:31;11.07;;;3.80;;
10481;SDS011;5288;42.334;23.876;2024-03-23T13:13:58;10.87;;;6.63;;
10481;SDS011;5288;42.334;23.876;2024-03-23T13:16:24;6.50;;;3.50;;
10481;SDS011;5288;42.334;23.876;2024-03-23T13:18:51;5.03;;;3.90;;
10481;SDS011;5288;42.334;23.876;2024-03-23T13:21:17;6.67;;;3.30;;
10481;SDS011;5288;42.334;23.876;2024-03-23T13:23:46;3.77;;;3.40;;
10481;SDS011;5288;42.334;23.876;2024-03-23T13:26:14;9.90;;;8.30;;
10481;SDS011;5288;42.334;23.876;2024-03-23T13:28:41;3.20;;;2.90;;
10481;SDS011;5288;42.334;23.876;2024-03-23T13:31:07;3.50;;;3.20;;
10481;SDS011;5288;42.334;23.876;2024-03-23T13:33:34;4.37;;;3.00;;
10481;SDS011;5288;42.334;23.876;2024-03-23T13:36:00;5.17;;;3.40;;
10481;SDS011;5288;42.334;23.876;2024-03-23T13:38:28;5.40;;;3.30;;
10481;SDS011;5288;42.334;23.876;2024-03-23T13:40:55;4.23;;;3.07;;
10481;SDS011;5288;42.334;23.876;2024-03-23T13:43:24;4.03;;;3.00;;
10481;SDS011;5288;42.334;23.876;2024-03-23T13:45:52;6.27;;;3.30;;
10481;SDS011;5288;42.334;23.876;2024-03-23T13:48:21;6.93;;;3.40;;
10481;SDS011;5288;42.334;23.876;2024-03-23T13:50:50;3.57;;;3.00;;
10481;SDS011;5288;42.334;23.876;2024-03-23T13:53:24;6.33;;;3.10;;
10481;SDS011;5288;42.334;23.876;2024-03-23T13:55:50;5.57;;;3.10;;
10481;SDS011;5288;42.334;23.876;2024-03-23T13:58:17;3.50;;;3.00;;
10481;SDS011;5288;42.334;23.876;2024-03-23T14:00:44;3.13;;;2.80;;
10481;SDS011;5288;42.334;23.876;2024-03-23T14:03:11;4.83;;;3.23;;
10481;SDS011;5288;42.334;23.876;2024-03-23T14:05:38;4.93;;;3.47;;
10481;SDS011;5288;42.334;23.876;2024-03-23T14:08:05;4.10;;;3.37;;
10481;SDS011;5288;42.334;23.876;2024-03-23T14:10:32;3.93;;;2.67;;
10481;SDS011;5288;42.334;23.876;2024-03-23T14:13:00;3.77;;;3.27;;
10481;SDS011;5288;42.334;23.876;2024-03-23T14:15:27;11.97;;;3.83;;
10481;SDS011;5288;42.334;23.876;2024-03-23T14:17:55;3.97;;;3.30;;
10481;SDS011;5288;42.334;23.876;2024-03-23T14:20:21;4.70;;;3.00;;
10481;SDS011;5288;42.334;23.876;2024-03-23T14:22:49;4.30;;;3.90;;
10481;SDS011;5288;42.334;23.876;2024-03-23T14:25:15;5.40;;;3.27;;
10481;SDS011;5288;42.334;23.876;2024-03-23T14:27:43;6.23;;;3.47;;
10481;SDS011;5288;42.334;23.876;2024-03-23T14:30:10;3.47;;;3.00;;
10481;SDS011;5288;42.334;23.876;2024-03-23T14:32:39;5.30;;;3.50;;
10481;SDS011;5288;42.334;23.876;2024-03-23T14:35:06;3.07;;;2.63;;
10481;SDS011;5288;42.334;23.876;2024-03-23T14:37:36;5.03;;;3.27;;
10481;SDS011;5288;42.334;23.876;2024-03-23T14:40:02;5.47;;;3.00;;
10481;SDS011;5288;42.334;23.876;2024-03-23T14:42:30;4.33;;;2.90;;
10481;SDS011;5288;42.334;23.876;2024-03-23T14:44:56;4.53;;;3.00;;
10481;SDS011;5288;42.334;23.876;2024-03-23T14:47:23;32.17;;;5.53;;
10481;SDS011;5288;42.334;23.876;2024-03-23T14:49:49;3.63;;;2.80;;
10481;SDS011;5288;42.334;23.876;2024-03-23T14:52:18;9.33;;;3.20;;
10481;SDS011;5288;42.334;23.876;2024-03-23T14:54:45;5.60;;;3.63;;
10481;SDS011;5288;42.334;23.876;2024-03-23T14:57:12;6.70;;;3.00;;
10481;SDS011;5288;42.334;23.876;2024-03-23T14:59:38;5.60;;;3.17;;
10481;SDS011;5288;42.334;23.876;2024-03-23T15:02:11;4.80;;;3.00;;
10481;SDS011;5288;42.334;23.876;2024-03-23T15:04:40;6.13;;;3.00;;
10481;SDS011;5288;42.334;23.876;2024-03-23T15:07:07;4.37;;;2.77;;
10481;SDS011;5288;42.334;23.876;2024-03-23T15:09:36;3.23;;;2.80;;
10481;SDS011;5288;42.334;23.876;2024-03-23T15:12:07;5.43;;;2.87;;
10481;SDS011;5288;42.334;23.876;2024-03-23T15:14:33;3.93;;;3.30;;
10481;SDS011;5288;42.334;23.876;2024-03-23T15:17:00;4.27;;;2.90;;
10481;SDS011;5288;42.334;23.876;2024-03-23T15:19:32;7.60;;;2.80;;
10481;SDS011;5288;42.334;23.876;2024-03-23T15:22:01;7.40;;;4.23;;
10481;SDS011;5288;42.334;23.876;2024-03-23T15:24:28;5.37;;;3.50;;
10481;SDS011;5288;42.334;23.876;2024-03-23T15:26:56;5.73;;;3.23;;
10481;SDS011;5288;42.334;23.876;2024-03-23T15:29:22;4.73;;;2.53;;
10481;SDS011;5288;42.334;23.876;2024-03-23T15:31:49;5.50;;;3.57;;
10481;SDS011;5288;42.334;23.876;2024-03-23T15:34:17;4.03;;;3.07;;
10481;SDS011;5288;42.334;23.876;2024-03-23T15:36:47;5.07;;;3.20;;
10481;SDS011;5288;42.334;23.876;2024-03-23T15:39:21;3.80;;;3.30;;
10481;SDS011;5288;42.334;23.876;2024-03-23T15:41:48;4.03;;;2.50;;
10481;SDS011;5288;42.334;23.876;2024-03-23T15:44:16;8.77;;;3.47;;